Time;durP1;ratioP1;P1;durP2;ratioP2;P2;SDS_P1;SDS_P2;PMS_P1;PMS_P2;Temp;Humidity;BMP_temperature;BMP_pressure;BME280_temperature;BME280_humidity;BME280_pressure;Samples;Min_cycle;Max_cycle;Signal;HPM_P1;HPM_P2
2022/07/18 00:00:38;;;;;;;;;;;;;;;17.55;100.00;102423.50;5055646;28;19913;-93
2022/07/18 00:03:03;;;;;;;;;;;;;;;17.54;100.00;102419.94;5074078;28;19916;-92
2022/07/18 00:05:28;;;;;;;;;;;;;;;17.53;100.00;102427.09;5071118;28;19920;-91
2022/07/18 00:07:54;;;;;;;;;;;;;;;17.52;100.00;102432.53;5055354;28;19996;-91
2022/07/18 00:10:19;;;;;;;;;;;;;;;17.49;100.00;102428.22;5055000;28;20354;-91
2022/07/18 00:12:44;;;;;;;;;;;;;;;17.48;100.00;102425.59;5055132;28;20303;-91
2022/07/18 00:15:10;;;;;;;;;;;;;;;17.43;100.00;102417.78;5048171;28;19921;-91
2022/07/18 00:17:35;;;;;;;;;;;;;;;17.39;100.00;102418.84;5048276;28;20296;-91
2022/07/18 00:20:01;;;;;;;;;;;;;;;17.39;100.00;102415.31;5058049;28;20011;-91
2022/07/18 00:22:26;;;;;;;;;;;;;;;17.38;100.00;102414.47;5073239;28;20361;-91
2022/07/18 00:24:51;;;;;;;;;;;;;;;17.36;100.00;102416.34;5055352;28;20384;-91
2022/07/18 00:27:16;;;;;;;;;;;;;;;17.34;100.00;102408.38;5051568;28;19925;-91
2022/07/18 00:29:42;;;;;;;;;;;;;;;17.31;100.00;102407.66;5049681;28;19924;-90
2022/07/18 00:32:08;;;;;;;;;;;;;;;17.31;100.00;102407.66;5031747;28;19971;-90
2022/07/18 00:34:34;;;;;;;;;;;;;;;17.29;100.00;102404.19;5015223;28;19933;-91
2022/07/18 00:36:59;;;;;;;;;;;;;;;17.29;100.00;102409.53;5028835;28;19917;-90
2022/07/18 00:39:24;;;;;;;;;;;;;;;17.28;100.00;102397.97;5035765;28;19917;-91
2022/07/18 00:41:58;;;;;;;;;;;;;;;17.30;100.00;102403.25;5031648;28;20008;-82
2022/07/18 00:44:24;;;;;;;;;;;;;;;17.29;100.00;102405.06;5044111;28;19961;-82
2022/07/18 00:46:50;;;;;;;;;;;;;;;17.32;100.00;102406.72;5035136;28;19917;-83
2022/07/18 00:49:15;;;;;;;;;;;;;;;17.32;100.00;102402.22;5052695;28;20275;-82
2022/07/18 00:51:40;;;;;;;;;;;;;;;17.29;100.00;102398.81;5052516;28;19917;-82
2022/07/18 00:54:06;;;;;;;;;;;;;;;17.25;100.00;102399.94;5034591;28;19917;-82
2022/07/18 00:56:31;;;;;;;;;;;;;;;17.22;100.00;102402.75;5030833;28;19917;-82
2022/07/18 00:58:57;;;;;;;;;;;;;;;17.16;100.00;102401.22;5011391;28;19921;-82
2022/07/18 01:04:07;;;;;;;;;;;;;;;17.10;100.00;102394.38;5031936;28;20014;-81
2022/07/18 01:06:32;;;;;;;;;;;;;;;17.08;100.00;102396.25;5030837;28;19964;-82
2022/07/18 01:08:57;;;;;;;;;;;;;;;17.06;100.00;102394.59;5047953;28;19927;-82
2022/07/18 01:11:23;;;;;;;;;;;;;;;17.02;100.00;102391.19;5034277;28;20303;-82
2022/07/18 01:13:49;;;;;;;;;;;;;;;17.01;100.00;102386.78;5034641;28;19962;-82
2022/07/18 01:16:15;;;;;;;;;;;;;;;16.99;100.00;102391.34;5031088;28;19925;-82
2022/07/18 01:18:47;;;;;;;;;;;;;;;16.93;100.00;102389.81;5044661;28;19923;-82
2022/07/18 01:21:15;;;;;;;;;;;;;;;16.87;100.00;102395.44;5058038;28;19917;-82
2022/07/18 01:23:40;;;;;;;;;;;;;;;16.83;100.00;102388.50;5075831;28;19981;-82
2022/07/18 01:26:12;;;;;;;;;;;;;;;16.78;100.00;102393.19;5076295;28;19913;-82
2022/07/18 01:28:37;;;;;;;;;;;;;;;16.75;100.00;102391.50;5053415;28;19921;-81
2022/07/18 01:31:03;;;;;;;;;;;;;;;16.76;100.00;102392.38;5056623;28;19961;-80
2022/07/18 01:33:30;;;;;;;;;;;;;;;16.77;100.00;102391.44;5057364;28;19920;-81
2022/07/18 01:35:57;;;;;;;;;;;;;;;16.76;100.00;102387.03;5075352;28;20395;-82
2022/07/18 01:38:22;;;;;;;;;;;;;;;16.77;100.00;102384.28;5057225;28;19916;-82
2022/07/18 01:40:50;;;;;;;;;;;;;;;16.76;100.00;102387.03;5052970;28;19921;-82
2022/07/18 01:43:15;;;;;;;;;;;;;;;16.71;100.00;102382.78;5017336;28;19913;-82
2022/07/18 01:45:40;;;;;;;;;;;;;;;16.67;100.00;102378.47;5050819;28;19915;-81
2022/07/18 01:48:06;;;;;;;;;;;;;;;16.64;100.00;102386.66;5034036;28;19924;-81
2022/07/18 01:50:31;;;;;;;;;;;;;;;16.60;100.00;102381.50;5046524;28;19921;-81
2022/07/18 01:52:56;;;;;;;;;;;;;;;16.54;100.00;102372.81;5073700;28;19927;-81
2022/07/18 01:55:21;;;;;;;;;;;;;;;16.51;100.00;102367.63;5057142;28;20429;-81
2022/07/18 01:57:47;;;;;;;;;;;;;;;16.55;100.00;102384.41;5074838;28;20277;-81
2022/07/18 02:00:13;;;;;;;;;;;;;;;16.57;100.00;102377.16;5055219;28;19955;-81
2022/07/18 02:02:39;;;;;;;;;;;;;;;16.57;100.00;102378.97;5073303;28;19920;-82
2022/07/18 02:05:05;;;;;;;;;;;;;;;16.52;100.00;102360.47;5073366;28;19916;-82
2022/07/18 02:07:32;;;;;;;;;;;;;;;16.51;100.00;102366.78;5056716;28;19916;-82
2022/07/18 02:09:57;;;;;;;;;;;;;;;16.51;100.00;102362.28;5056708;28;19913;-82
2022/07/18 02:12:22;;;;;;;;;;;;;;;16.50;100.00;102360.53;5051808;28;19927;-82
2022/07/18 02:14:48;;;;;;;;;;;;;;;16.48;100.00;102364.22;5037181;28;20450;-82
2022/07/18 02:17:13;;;;;;;;;;;;;;;16.45;100.00;102356.34;5064974;28;19913;-82
2022/07/18 02:19:39;;;;;;;;;;;;;;;16.45;100.00;102351.00;5056247;28;20342;-82
2022/07/18 02:22:04;;;;;;;;;;;;;;;16.45;100.00;102346.50;5053834;28;20011;-81
2022/07/18 02:24:29;;;;;;;;;;;;;;;16.45;100.00;102343.84;5036818;28;19916;-82
2022/07/18 02:26:55;;;;;;;;;;;;;;;16.43;100.00;102345.69;5054648;28;19936;-83
2022/07/18 02:29:22;;;;;;;;;;;;;;;16.39;100.00;102344.13;5055447;28;19968;-82
2022/07/18 02:31:47;;;;;;;;;;;;;;;16.33;100.00;102350.63;5036769;28;20376;-83
2022/07/18 02:34:14;;;;;;;;;;;;;;;16.28;100.00;102343.72;5036858;28;19931;-83
2022/07/18 02:36:40;;;;;;;;;;;;;;;16.24;100.00;102340.34;5013927;28;19921;-82
2022/07/18 02:39:06;;;;;;;;;;;;;;;16.20;100.00;102339.63;5016088;28;19972;-81
2022/07/18 02:41:32;;;;;;;;;;;;;;;16.19;100.00;102329.00;5013183;28;19944;-81
2022/07/18 02:43:57;;;;;;;;;;;;;;;16.15;100.00;102336.28;5029837;28;19937;-82
2022/07/18 02:46:22;;;;;;;;;;;;;;;16.09;100.00;102331.19;5029851;28;20289;-81
2022/07/18 02:48:48;;;;;;;;;;;;;;;16.05;100.00;102333.13;5029945;28;19924;-81
2022/07/18 02:51:13;;;;;;;;;;;;;;;16.03;100.00;102336.81;5026069;28;19921;-81
2022/07/18 02:53:38;;;;;;;;;;;;;;;16.00;100.00;102331.63;5015080;28;19939;-81
2022/07/18 02:56:03;;;;;;;;;;;;;;;15.97;100.00;102323.72;5004643;28;19924;-82
2022/07/18 02:58:29;;;;;;;;;;;;;;;15.94;100.00;102330.06;4993557;28;20393;-82
2022/07/18 03:00:54;;;;;;;;;;;;;;;15.93;100.00;102319.44;5017101;28;19921;-80
2022/07/18 03:03:19;;;;;;;;;;;;;;;15.91;100.00;102332.88;5012775;28;19918;-81
2022/07/18 03:05:45;;;;;;;;;;;;;;;15.88;100.00;102319.63;5013036;28;20434;-81
2022/07/18 03:08:10;;;;;;;;;;;;;;;15.82;100.00;102326.13;5013033;28;19918;-81
2022/07/18 03:10:35;;;;;;;;;;;;;;;15.78;100.00;102329.84;5015007;28;19917;-82
2022/07/18 03:13:00;;;;;;;;;;;;;;;15.75;100.00;102326.44;5012703;28;20381;-82
2022/07/18 03:15:26;;;;;;;;;;;;;;;15.69;100.00;102316.88;5012714;28;19917;-81
2022/07/18 03:17:51;;;;;;;;;;;;;;;15.67;100.00;102316.94;5012562;28;20012;-81
2022/07/18 03:20:16;;;;;;;;;;;;;;;15.65;100.00;102316.16;5012625;28;19918;-81
2022/07/18 03:22:41;;;;;;;;;;;;;;;15.64;100.00;102306.41;5030646;28;19956;-81
2022/07/18 03:25:07;;;;;;;;;;;;;;;15.64;100.00;102306.41;5015624;28;19917;-81
2022/07/18 03:27:32;;;;;;;;;;;;;;;15.63;100.00;102299.31;5032322;28;19921;-81
2022/07/18 03:29:58;;;;;;;;;;;;;;;15.63;100.00;102293.97;5048979;28;19913;-82
2022/07/18 03:32:23;;;;;;;;;;;;;;;15.65;100.00;102292.13;5030149;28;20486;-82
2022/07/18 03:34:48;;;;;;;;;;;;;;;15.66;100.00;102290.31;5053001;28;19932;-82
2022/07/18 03:37:13;;;;;;;;;;;;;;;15.66;100.00;102296.50;5051664;28;20003;-82
2022/07/18 03:39:39;;;;;;;;;;;;;;;15.62;100.00;102297.56;5051033;28;19924;-82
2022/07/18 03:42:04;;;;;;;;;;;;;;;15.60;100.00;102302.13;5066472;28;19927;-82
2022/07/18 03:44:29;;;;;;;;;;;;;;;15.59;100.00;102294.16;5040101;28;19921;-81
2022/07/18 03:46:54;;;;;;;;;;;;;;;15.56;100.00;102288.03;5021746;28;19917;-81
2022/07/18 03:49:20;;;;;;;;;;;;;;;15.54;100.00;102297.91;5028239;28;19924;-81
2022/07/18 03:51:45;;;;;;;;;;;;;;;15.57;100.00;102291.56;5028281;28;19979;-81
2022/07/18 03:54:10;;;;;;;;;;;;;;;15.57;100.00;102280.88;5031579;28;20007;-81
2022/07/18 03:56:36;;;;;;;;;;;;;;;15.56;100.00;102277.34;5032543;28;19917;-81
2022/07/18 03:59:02;;;;;;;;;;;;;;;15.60;100.00;102279.88;5031633;28;19913;-80
2022/07/18 04:01:27;;;;;;;;;;;;;;;15.63;100.00;102282.44;5031470;28;20007;-81
2022/07/18 04:03:52;;;;;;;;;;;;;;;15.65;100.00;102281.44;5043548;28;19917;-82
2022/07/18 04:06:18;;;;;;;;;;;;;;;15.68;100.00;102278.63;5068415;28;19924;-81
2022/07/18 04:08:43;;;;;;;;;;;;;;;15.70;100.00;102282.09;5051374;28;20326;-82
2022/07/18 04:11:08;;;;;;;;;;;;;;;15.73;100.00;102281.97;5051312;28;20387;-82
2022/07/18 04:13:33;;;;;;;;;;;;;;;15.76;100.00;102290.78;5049610;28;19928;-81
2022/07/18 04:15:59;;;;;;;;;;;;;;;15.77;100.00;102279.13;5068406;28;20381;-82
2022/07/18 04:18:24;;;;;;;;;;;;;;;15.80;100.00;102285.22;5067713;28;19913;-82
2022/07/18 04:20:49;;;;;;;;;;;;;;;15.85;100.00;102282.38;5034792;28;19953;-81
2022/07/18 04:23:16;;;;;;;;;;;;;;;15.88;100.00;102290.25;5042047;28;19917;-81
2022/07/18 04:25:41;;;;;;;;;;;;;;;15.88;100.00;102283.13;5033671;28;19928;-82
2022/07/18 04:28:08;;;;;;;;;;;;;;;15.89;100.00;102278.63;5031129;28;19964;-82
2022/07/18 04:30:34;;;;;;;;;;;;;;;15.92;100.00;102278.53;5031551;28;19967;-81
2022/07/18 04:33:01;;;;;;;;;;;;;;;15.96;100.00;102274.78;5033080;28;19917;-82
2022/07/18 04:35:26;;;;;;;;;;;;;;;16.00;100.00;102271.03;5041458;28;19928;-82
2022/07/18 04:37:51;;;;;;;;;;;;;;;16.05;100.00;102273.50;5031964;28;20304;-82
2022/07/18 04:40:17;;;;;;;;;;;;;;;16.10;100.00;102270.59;5015190;28;19967;-82
2022/07/18 04:42:42;;;;;;;;;;;;;;;16.20;100.00;102271.91;5015547;28;19921;-82
2022/07/18 04:45:08;;;;;;;;;;;;;;;16.31;100.00;102280.31;5037112;28;19912;-82
2022/07/18 04:47:34;;;;;;;;;;;;;;;16.36;100.00;102280.97;5052662;28;19916;-82
2022/07/18 04:49:59;;;;;;;;;;;;;;;16.33;100.00;102281.13;5068258;28;20011;-82
2022/07/18 04:52:25;;;;;;;;;;;;;;;16.32;100.00;102279.38;5071069;28;20303;-82
2022/07/18 04:54:53;;;;;;;;;;;;;;;16.29;100.00;102290.22;5054943;28;19920;-82
2022/07/18 04:57:19;;;;;;;;;;;;;;;16.28;100.00;102282.25;5043083;28;19963;-82
2022/07/18 04:59:45;;;;;;;;;;;;;;;16.28;100.00;102284.91;5018920;28;19921;-82
2022/07/18 05:02:10;;;;;;;;;;;;;;;16.30;100.00;102280.38;5034797;28;19913;-82
2022/07/18 05:04:36;;;;;;;;;;;;;;;16.37;100.00;102285.38;5034840;28;19917;-82
2022/07/18 05:07:02;;;;;;;;;;;;;;;16.52;100.00;102281.13;5045323;28;20486;-82
2022/07/18 05:09:28;;;;;;;;;;;;;;;16.65;100.00;102286.75;5047068;28;20008;-81
2022/07/18 05:11:53;;;;;;;;;;;;;;;16.74;100.00;102288.13;5035901;28;19921;-81
2022/07/18 05:14:19;;;;;;;;;;;;;;;16.93;97.96;102282.78;5034216;28;20285;-81
2022/07/18 05:16:44;;;;;;;;;;;;;;;17.14;95.23;102285.34;5054253;28;19925;-80
2022/07/18 05:19:09;;;;;;;;;;;;;;;17.33;94.51;102282.63;5042649;28;19914;-81
2022/07/18 05:21:34;;;;;;;;;;;;;;;17.39;95.80;102281.44;5054269;28;19943;-80
2022/07/18 05:24:00;;;;;;;;;;;;;;;17.37;96.33;102284.19;5046312;28;19925;-82
2022/07/18 05:26:25;;;;;;;;;;;;;;;17.44;93.51;102282.94;5058579;28;19967;-81
2022/07/18 05:28:50;;;;;;;;;;;;;;;17.59;91.84;102280.44;5029497;28;19940;-82
2022/07/18 05:31:16;;;;;;;;;;;;;;;17.73;90.92;102274.34;5025415;28;19979;-83
2022/07/18 05:33:41;;;;;;;;;;;;;;;17.84;89.63;102275.50;5035089;28;19967;-82
2022/07/18 05:36:07;;;;;;;;;;;;;;;17.94;88.73;102275.06;5034633;28;19925;-83
2022/07/18 05:38:32;;;;;;;;;;;;;;;18.04;88.26;102278.97;5034382;28;19966;-82
2022/07/18 05:40:57;;;;;;;;;;;;;;;18.14;87.93;102280.22;5030638;28;20366;-83
2022/07/18 05:43:22;;;;;;;;;;;;;;;18.25;87.48;102268.03;5016338;28;20067;-83
2022/07/18 05:45:48;;;;;;;;;;;;;;;18.36;87.32;102271.00;5049332;28;19945;-82
2022/07/18 05:48:13;;;;;;;;;;;;;;;18.43;88.51;102266.19;5028589;28;19925;-83
2022/07/18 05:50:38;;;;;;;;;;;;;;;18.51;87.63;102262.09;5051006;28;19999;-82
2022/07/18 05:53:04;;;;;;;;;;;;;;;18.64;87.08;102250.69;5029563;28;20377;-82
2022/07/18 05:55:29;;;;;;;;;;;;;;;18.75;86.97;102248.25;5030269;28;20293;-83
2022/07/18 05:57:54;;;;;;;;;;;;;;;18.86;85.45;102246.78;5021167;28;19928;-83
2022/07/18 06:00:20;;;;;;;;;;;;;;;18.94;84.12;102244.53;5033840;28;19921;-83
2022/07/18 06:02:47;;;;;;;;;;;;;;;19.01;83.25;102262.03;5049678;28;19917;-83
2022/07/18 06:05:12;;;;;;;;;;;;;;;19.10;83.04;102247.19;5023763;28;19918;-83
2022/07/18 06:07:38;;;;;;;;;;;;;;;19.18;82.23;102242.22;5023738;28;19940;-83
2022/07/18 06:10:03;;;;;;;;;;;;;;;19.26;82.57;102249.84;5011009;28;19926;-81
2022/07/18 06:12:30;;;;;;;;;;;;;;;19.32;83.18;102250.34;5014660;28;19944;-81
2022/07/18 06:14:55;;;;;;;;;;;;;;;19.45;82.54;102242.44;5012427;28;20432;-82
2022/07/18 06:17:21;;;;;;;;;;;;;;;19.63;82.45;102245.81;5030372;28;20021;-81
2022/07/18 06:19:46;;;;;;;;;;;;;;;19.83;81.95;102248.28;5026782;28;19989;-75
2022/07/18 06:22:11;;;;;;;;;;;;;;;20.03;80.02;102250.56;5028700;28;19956;-74
2022/07/18 06:24:37;;;;;;;;;;;;;;;20.22;80.15;102249.44;5027654;28;19956;-74
2022/07/18 06:27:02;;;;;;;;;;;;;;;20.37;76.43;102250.25;5022828;28;19944;-74
2022/07/18 06:29:27;;;;;;;;;;;;;;;20.47;76.10;102251.38;5029366;28;20297;-74
2022/07/18 06:31:52;;;;;;;;;;;;;;;20.52;76.41;102243.88;5003989;28;19930;-75
2022/07/18 06:34:18;;;;;;;;;;;;;;;20.51;73.49;102244.00;5013124;28;19975;-75
2022/07/18 06:36:43;;;;;;;;;;;;;;;20.51;72.77;102250.25;5047601;28;19964;-75
2022/07/18 06:39:10;;;;;;;;;;;;;;;20.50;73.01;102251.22;5038348;28;19960;-75
2022/07/18 06:41:37;;;;;;;;;;;;;;;20.57;72.97;102255.22;5053850;28;19921;-74
2022/07/18 06:44:02;;;;;;;;;;;;;;;20.70;71.72;102257.13;5024059;28;19932;-76
2022/07/18 06:46:27;;;;;;;;;;;;;;;20.87;71.21;102259.59;5019153;28;19920;-76
2022/07/18 06:48:53;;;;;;;;;;;;;;;21.06;70.73;102248.47;5045500;28;20335;-76
2022/07/18 06:51:19;;;;;;;;;;;;;;;21.24;69.31;102256.25;5060167;28;19963;-76
2022/07/18 06:53:44;;;;;;;;;;;;;;;21.39;66.02;102255.22;5053113;28;20007;-76
2022/07/18 06:56:09;;;;;;;;;;;;;;;21.53;64.81;102253.41;5036169;28;19924;-77
2022/07/18 06:58:35;;;;;;;;;;;;;;;21.59;63.03;102247.63;5070787;28;19927;-75
2022/07/18 07:01:00;;;;;;;;;;;;;;;21.64;62.37;102234.69;5039349;28;20448;-75
2022/07/18 07:03:25;;;;;;;;;;;;;;;21.70;61.39;102236.09;5033828;28;20344;-75
2022/07/18 07:05:51;;;;;;;;;;;;;;;21.77;60.66;102232.00;5047690;28;19920;-76
2022/07/18 07:08:16;;;;;;;;;;;;;;;21.89;61.09;102230.25;5053995;28;19983;-81
2022/07/18 07:10:41;;;;;;;;;;;;;;;21.99;60.48;102242.13;5026300;28;19921;-82
2022/07/18 07:13:06;;;;;;;;;;;;;;;22.07;58.20;102230.78;5031452;28;19968;-82
2022/07/18 07:15:32;;;;;;;;;;;;;;;22.16;58.31;102234.66;5031117;28;19917;-82
2022/07/18 07:17:57;;;;;;;;;;;;;;;22.27;58.37;102240.97;5047331;28;20387;-82
2022/07/18 07:20:22;;;;;;;;;;;;;;;22.36;57.23;102236.78;5063660;28;20033;-82
2022/07/18 07:22:53;;;;;;;;;;;;;;;22.47;57.74;102235.13;5039933;28;19920;-83
2022/07/18 07:25:19;;;;;;;;;;;;;;;22.57;57.00;102225.38;5055294;28;19966;-83
2022/07/18 07:27:44;;;;;;;;;;;;;;;22.63;56.41;102238.44;5053081;28;19913;-84
2022/07/18 07:30:10;;;;;;;;;;;;;;;22.73;56.76;102231.38;5037756;28;19963;-83
2022/07/18 07:32:36;;;;;;;;;;;;;;;22.83;56.74;102233.41;5055400;28;19920;-82
2022/07/18 07:35:11;;;;;;;;;;;;;;;22.94;56.28;102238.84;5051943;28;20396;-83
2022/07/18 07:37:36;;;;;;;;;;;;;;;23.10;53.57;102226.88;5053093;28;19928;-83
2022/07/18 07:40:02;;;;;;;;;;;;;;;23.32;50.82;102226.13;5033805;28;20281;-82
2022/07/18 07:42:28;;;;;;;;;;;;;;;23.47;46.97;102230.34;5034307;28;20427;-82
2022/07/18 07:44:53;;;;;;;;;;;;;;;23.60;46.10;102238.34;5033621;28;20008;-82
2022/07/18 07:47:18;;;;;;;;;;;;;;;23.62;45.35;102232.81;5015739;28;19917;-82
2022/07/18 07:49:44;;;;;;;;;;;;;;;23.70;46.00;102230.38;5027156;28;19923;-82
2022/07/18 07:52:11;;;;;;;;;;;;;;;23.79;45.99;102235.06;5041866;28;20415;-82
2022/07/18 07:54:36;;;;;;;;;;;;;;;23.97;44.76;102234.59;5032855;28;19996;-82
2022/07/18 07:57:02;;;;;;;;;;;;;;;24.05;46.35;102232.13;5031698;28;20000;-83
2022/07/18 07:59:27;;;;;;;;;;;;;;;24.15;45.16;102238.53;5039830;28;20257;-82
2022/07/18 08:01:53;;;;;;;;;;;;;;;24.18;44.41;102232.00;5055119;28;19925;-82
2022/07/18 08:04:18;;;;;;;;;;;;;;;24.25;44.53;102226.97;5029182;28;20289;-83
2022/07/18 08:06:43;;;;;;;;;;;;;;;24.34;43.71;102228.94;5011803;28;19918;-82
2022/07/18 08:09:08;;;;;;;;;;;;;;;24.47;42.77;102232.31;5048478;28;20371;-83
2022/07/18 08:11:34;;;;;;;;;;;;;;;24.65;42.07;102227.25;5031437;28;20011;-83
2022/07/18 08:13:59;;;;;;;;;;;;;;;24.86;42.51;102221.06;5016273;28;20280;-83
2022/07/18 08:16:25;;;;;;;;;;;;;;;24.92;40.81;102228.66;5011560;28;19921;-83
2022/07/18 08:18:50;;;;;;;;;;;;;;;25.01;41.12;102219.75;5028404;28;19924;-83
2022/07/18 08:21:15;;;;;;;;;;;;;;;25.21;40.17;102219.91;5057070;28;19917;-83
2022/07/18 08:23:41;;;;;;;;;;;;;;;25.33;39.59;102220.69;5051168;28;20299;-83
2022/07/18 08:26:06;;;;;;;;;;;;;;;25.48;40.01;102207.69;5053809;28;19924;-83
2022/07/18 08:28:32;;;;;;;;;;;;;;;25.62;40.27;102212.75;5056148;28;19917;-83
2022/07/18 08:30:57;;;;;;;;;;;;;;;25.66;37.39;102210.66;5072704;28;20339;-84
2022/07/18 08:33:22;;;;;;;;;;;;;;;25.79;37.43;102214.00;5055401;28;19964;-84
2022/07/18 08:35:49;;;;;;;;;;;;;;;25.87;36.91;102220.59;5033490;28;19926;-83
2022/07/18 08:38:14;;;;;;;;;;;;;;;25.99;37.60;102214.09;5049045;28;19972;-83
2022/07/18 08:40:39;;;;;;;;;;;;;;;26.13;37.75;102216.44;5022461;28;19921;-84
2022/07/18 08:43:05;;;;;;;;;;;;;;;26.26;34.76;102202.63;5035524;28;19952;-83
2022/07/18 08:45:30;;;;;;;;;;;;;;;26.58;35.14;102215.13;5023300;28;20349;-83
2022/07/18 08:47:55;;;;;;;;;;;;;;;26.96;33.65;102218.03;5035350;28;19924;-84
2022/07/18 08:50:21;;;;;;;;;;;;;;;28.10;33.51;102214.50;5035333;28;19929;-83
2022/07/18 08:52:48;;;;;;;;;;;;;;;29.75;30.40;102210.53;5018433;28;19929;-83
2022/07/18 08:55:14;;;;;;;;;;;;;;;30.82;27.82;102219.09;5035011;28;19917;-84
2022/07/18 08:57:40;;;;;;;;;;;;;;;31.70;25.29;102220.25;5055372;28;19913;-83
2022/07/18 09:00:09;;;;;;;;;;;;;;;32.39;25.40;102217.91;5056474;28;19924;-84
2022/07/18 09:02:34;;;;;;;;;;;;;;;33.11;24.53;102216.69;5040616;28;20478;-84
2022/07/18 09:05:01;;;;;;;;;;;;;;;33.58;23.05;102217.47;5026330;28;20040;-84
2022/07/18 09:07:27;;;;;;;;;;;;;;;33.55;24.78;102215.94;5053383;28;19923;-84
2022/07/18 09:09:54;;;;;;;;;;;;;;;33.54;23.73;102224.38;5056618;28;19919;-84
2022/07/18 09:12:20;;;;;;;;;;;;;;;33.22;23.61;102231.88;5056187;28;19923;-84
2022/07/18 09:14:46;;;;;;;;;;;;;;;32.88;23.84;102220.34;5054578;28;19923;-84
2022/07/18 09:17:16;;;;;;;;;;;;;;;33.25;24.15;102226.00;5043104;28;19917;-84
2022/07/18 09:19:55;;;;;;;;;;;;;;;33.43;24.37;102221.06;5034790;28;20377;-84
2022/07/18 09:22:21;;;;;;;;;;;;;;;33.97;22.97;102219.09;5034954;28;20273;-85
2022/07/18 09:24:51;;;;;;;;;;;;;;;33.96;22.55;102217.38;5036315;28;19940;-84
2022/07/18 09:27:48;;;;;;;;;;;;;;;34.02;21.79;102221.25;5056115;28;19923;-83
2022/07/18 09:30:17;;;;;;;;;;;;;;;34.10;22.75;102210.16;5023899;28;20285;-82
2022/07/18 09:32:46;;;;;;;;;;;;;;;34.55;21.11;102213.66;5073170;28;19963;-83
2022/07/18 09:35:33;;;;;;;;;;;;;;;34.22;21.39;102213.25;5055096;28;19925;-84
2022/07/18 09:38:00;;;;;;;;;;;;;;;34.67;21.72;102208.50;5055627;28;20380;-83
2022/07/18 09:40:27;;;;;;;;;;;;;;;34.68;20.27;102203.84;5069974;28;19909;-83
2022/07/18 09:42:53;;;;;;;;;;;;;;;34.43;20.40;102204.22;5080227;28;20016;-83
2022/07/18 09:45:27;;;;;;;;;;;;;;;34.36;20.25;102201.38;5080402;28;19905;-83
2022/07/18 09:48:18;;;;;;;;;;;;;;;34.49;20.43;102197.09;5074247;28;19929;-83
2022/07/18 09:50:53;;;;;;;;;;;;;;;34.69;20.04;102192.63;5073400;28;19921;-84
2022/07/18 09:53:25;;;;;;;;;;;;;;;34.90;20.52;102201.94;5063128;28;19921;-84
2022/07/18 09:55:55;;;;;;;;;;;;;;;34.79;23.08;102195.88;5051426;28;19913;-83
2022/07/18 09:58:24;;;;;;;;;;;;;;;35.10;20.42;102200.19;5050290;28;20388;-84
2022/07/18 10:00:50;;;;;;;;;;;;;;;35.11;19.53;102199.16;5034980;28;20000;-84
2022/07/18 10:03:16;;;;;;;;;;;;;;;34.86;22.58;102203.38;5036859;28;19968;-84
2022/07/18 10:05:42;;;;;;;;;;;;;;;34.85;22.48;102197.03;5035675;28;19920;-84
2022/07/18 10:08:09;;;;;;;;;;;;;;;35.37;20.47;102200.41;5033214;28;20148;-85
2022/07/18 10:10:35;;;;;;;;;;;;;;;35.48;18.66;102200.94;5052700;28;19916;-84
2022/07/18 10:13:01;;;;;;;;;;;;;;;35.49;21.02;102197.09;5071054;28;20387;-85
2022/07/18 10:15:29;;;;;;;;;;;;;;;35.22;20.54;102195.00;5054269;28;19916;-84
2022/07/18 10:17:54;;;;;;;;;;;;;;;35.22;21.02;102196.88;5053940;28;19956;-84
2022/07/18 10:20:28;;;;;;;;;;;;;;;35.55;19.42;102197.16;5053528;28;19928;-84
2022/07/18 10:22:55;;;;;;;;;;;;;;;35.73;19.79;102196.63;5053911;28;19938;-84
2022/07/18 10:25:25;;;;;;;;;;;;;;;35.20;20.39;102194.34;5053554;28;19913;-84
2022/07/18 10:27:51;;;;;;;;;;;;;;;35.71;19.40;102193.19;5050079;28;20004;-85
2022/07/18 10:30:19;;;;;;;;;;;;;;;36.07;17.90;102196.78;5035160;28;19956;-85
2022/07/18 10:32:45;;;;;;;;;;;;;;;36.12;20.70;102194.25;5053338;28;19924;-85
2022/07/18 10:35:14;;;;;;;;;;;;;;;35.99;20.20;102196.94;5060061;28;19927;-84
2022/07/18 10:37:40;;;;;;;;;;;;;;;35.76;20.19;102196.19;5056305;28;19936;-84
2022/07/18 10:40:21;;;;;;;;;;;;;;;35.82;18.40;102193.66;5020496;28;20372;-83
2022/07/18 10:43:06;;;;;;;;;;;;;;;35.59;20.67;102192.94;5054499;28;20223;-83
2022/07/18 10:45:47;;;;;;;;;;;;;;;36.14;20.84;102188.53;5036839;28;19913;-83
2022/07/18 10:48:31;;;;;;;;;;;;;;;36.34;16.95;102185.81;5037523;28;20400;-84
2022/07/18 10:51:00;;;;;;;;;;;;;;;36.22;16.92;102188.34;5039505;28;19985;-85
2022/07/18 10:53:46;;;;;;;;;;;;;;;36.76;18.10;102186.53;5036291;28;19974;-85
2022/07/18 10:56:13;;;;;;;;;;;;;;;37.05;17.79;102187.22;5053506;28;20429;-85
2022/07/18 10:58:39;;;;;;;;;;;;;;;36.53;19.09;102181.44;5036637;28;19917;-85
2022/07/18 11:01:06;;;;;;;;;;;;;;;36.85;18.47;102193.56;5052537;28;20011;-84
2022/07/18 11:03:32;;;;;;;;;;;;;;;36.98;16.39;102183.59;5045369;28;19913;-84
2022/07/18 11:05:57;;;;;;;;;;;;;;;37.16;16.60;102185.69;5073909;28;19950;-85
2022/07/18 11:08:24;;;;;;;;;;;;;;;37.29;17.79;102182.94;5055793;28;19923;-85
2022/07/18 11:11:01;;;;;;;;;;;;;;;37.25;16.73;102180.78;5054218;28;20008;-85
2022/07/18 11:13:32;;;;;;;;;;;;;;;37.41;17.53;102183.13;5072306;28;19973;-85
2022/07/18 11:16:10;;;;;;;;;;;;;;;37.33;17.36;102183.34;5055879;28;19927;-84
2022/07/18 11:18:49;;;;;;;;;;;;;;;37.64;17.99;102176.28;5055571;28;20249;-83
2022/07/18 11:21:22;;;;;;;;;;;;;;;37.86;16.72;102179.59;5056779;28;20360;-84
2022/07/18 11:23:49;;;;;;;;;;;;;;;37.92;17.22;102170.44;5053709;28;19916;-84
2022/07/18 11:26:16;;;;;;;;;;;;;;;37.62;17.98;102165.41;5053800;28;20402;-84
2022/07/18 11:28:41;;;;;;;;;;;;;;;37.64;17.22;102168.81;5058134;28;19927;-75
2022/07/18 11:31:08;;;;;;;;;;;;;;;37.65;19.00;102169.66;5053865;28;19996;-76
2022/07/18 11:33:34;;;;;;;;;;;;;;;37.25;17.43;102167.81;5054856;28;19921;-84
2022/07/18 11:36:04;;;;;;;;;;;;;;;36.81;19.87;102159.16;5038304;28;19925;-84
2022/07/18 11:38:29;;;;;;;;;;;;;;;36.74;19.92;102155.53;5061214;28;19924;-83
2022/07/18 11:40:54;;;;;;;;;;;;;;;36.87;17.73;102150.06;5046071;28;19921;-83
2022/07/18 11:43:24;;;;;;;;;;;;;;;36.82;19.23;102155.34;5035806;28;19921;-84
2022/07/18 11:45:59;;;;;;;;;;;;;;;36.93;18.14;102153.03;5032191;28;20371;-83
2022/07/18 11:48:24;;;;;;;;;;;;;;;36.98;17.90;102145.78;5033322;28;20406;-83
2022/07/18 11:50:49;;;;;;;;;;;;;;;37.30;16.73;102147.84;5028441;28;19921;-84
2022/07/18 11:53:15;;;;;;;;;;;;;;;37.53;17.84;102148.22;5064576;28;19925;-84
2022/07/18 11:55:40;;;;;;;;;;;;;;;37.52;17.86;102153.97;5053223;28;20414;-83
2022/07/18 11:58:10;;;;;;;;;;;;;;;37.76;16.98;102140.50;5051558;28;19974;-83
2022/07/18 12:00:36;;;;;;;;;;;;;;;37.47;16.59;102145.47;5052939;28;19913;-82
2022/07/18 12:03:08;;;;;;;;;;;;;;;37.11;17.04;102147.66;5051840;28;19919;-83
2022/07/18 12:05:34;;;;;;;;;;;;;;;37.63;17.45;102139.47;5063172;28;19922;-83
2022/07/18 12:08:00;;;;;;;;;;;;;;;37.70;19.45;102139.44;5052646;28;20003;-83
2022/07/18 12:10:26;;;;;;;;;;;;;;;37.56;17.90;102127.59;5039216;28;19952;-83
2022/07/18 12:12:51;;;;;;;;;;;;;;;37.62;18.30;102125.88;5053424;28;19943;-83
2022/07/18 12:15:16;;;;;;;;;;;;;;;37.49;19.79;102129.56;5040632;28;19924;-83
2022/07/18 12:17:43;;;;;;;;;;;;;;;37.93;17.36;102129.78;5052345;28;19932;-83
2022/07/18 12:20:12;;;;;;;;;;;;;;;38.07;18.07;102133.34;5035244;28;19912;-83
2022/07/18 12:22:58;;;;;;;;;;;;;;;38.23;17.66;102127.25;5042806;28;19924;-84
2022/07/18 12:25:34;;;;;;;;;;;;;;;38.10;17.25;102128.22;5045696;28;19920;-84
2022/07/18 12:28:11;;;;;;;;;;;;;;;38.13;17.54;102124.16;5052151;28;19964;-84
2022/07/18 12:30:36;;;;;;;;;;;;;;;38.06;17.38;102128.88;5051463;28;20253;-83
2022/07/18 12:33:07;;;;;;;;;;;;;;;38.01;19.37;102130.38;5031360;28;19925;-84